createdAt,value
2022-08-04T00:00:54.140Z,24.05
2022-08-04T00:03:27.640Z,24.09
2022-08-04T00:06:28.174Z,24.00
2022-08-04T00:09:01.808Z,24.02
2022-08-04T00:11:34.103Z,24.07
2022-08-04T00:14:10.648Z,24.01
2022-08-04T00:16:42.769Z,24.03
2022-08-04T00:19:34.663Z,24.04
2022-08-04T00:22:07.549Z,24.04
2022-08-04T00:24:39.280Z,24.03
2022-08-04T00:27:09.905Z,23.96
2022-08-04T00:29:40.808Z,23.89
2022-08-04T00:32:11.332Z,23.92
2022-08-04T00:34:42.974Z,23.83
2022-08-04T00:37:15.445Z,23.74
2022-08-04T00:39:47.004Z,23.82
2022-08-04T00:42:29.919Z,23.76
2022-08-04T00:45:29.143Z,23.81
2022-08-04T00:48:23.874Z,23.79
2022-08-04T00:51:32.356Z,23.83
2022-08-04T00:54:33.293Z,23.79
2022-08-04T00:57:34.598Z,23.75
2022-08-04T01:00:15.064Z,23.71
2022-08-04T01:03:11.398Z,23.66
2022-08-04T01:06:02.996Z,23.59
2022-08-04T01:09:02.455Z,23.47
2022-08-04T01:11:56.869Z,23.48
2022-08-04T01:14:45.260Z,23.40
2022-08-04T01:17:27.543Z,23.43
2022-08-04T01:20:11.542Z,23.50
2022-08-04T01:23:01.678Z,23.46
2022-08-04T01:25:42.500Z,23.41
2022-08-04T01:28:34.305Z,23.34
2022-08-04T01:31:08.336Z,23.34
2022-08-04T01:34:02.961Z,23.25
2022-08-04T01:36:15.747Z,23.24
2022-08-04T01:38:46.721Z,23.22
2022-08-04T01:41:20.236Z,23.18
2022-08-04T01:43:55.495Z,23.08
2022-08-04T01:46:27.300Z,23.06
2022-08-04T01:48:59.262Z,23.02
2022-08-04T01:51:33.624Z,23.14
2022-08-04T01:54:04.148Z,23.15
2022-08-04T01:56:34.545Z,23.08
2022-08-04T01:59:05.488Z,22.99
2022-08-04T02:01:39.068Z,22.93
2022-08-04T02:04:18.548Z,22.86
2022-08-04T02:06:59.095Z,22.82
2022-08-04T02:10:03.136Z,22.75
2022-08-04T02:12:42.435Z,22.72
2022-08-04T02:15:23.482Z,22.65
2022-08-04T02:18:18.926Z,22.66
2022-08-04T02:20:52.208Z,22.64
2022-08-04T02:23:32.041Z,22.61
2022-08-04T02:26:08.438Z,22.57
2022-08-04T02:29:06.320Z,22.55
2022-08-04T02:31:42.534Z,22.56
2022-08-04T02:34:21.849Z,22.70
2022-08-04T02:36:53.131Z,22.86
2022-08-04T02:39:24.676Z,22.80
2022-08-04T02:41:56.373Z,22.82
2022-08-04T02:44:29.302Z,22.72
2022-08-04T02:47:02.208Z,22.69
2022-08-04T02:49:35.726Z,22.71
2022-08-04T02:52:08.200Z,22.78
2022-08-04T02:54:41.222Z,22.57
2022-08-04T02:57:14.601Z,22.49
2022-08-04T02:59:51.441Z,22.32
2022-08-04T03:02:24.949Z,22.30
2022-08-04T03:05:01.478Z,22.26
2022-08-04T03:07:56.345Z,22.20
2022-08-04T03:10:44.496Z,22.18
2022-08-04T03:13:39.628Z,22.23
2022-08-04T03:16:18.691Z,22.24
2022-08-04T03:19:16.318Z,22.32
2022-08-04T03:21:55.491Z,22.21
2022-08-04T03:24:59.066Z,22.13
2022-08-04T03:27:38.475Z,22.06
2022-08-04T03:30:15.178Z,22.06
2022-08-04T03:33:23.597Z,22.20
2022-08-04T03:36:05.671Z,22.10
2022-08-04T03:38:42.137Z,22.10
2022-08-04T03:41:55.209Z,22.21
2022-08-04T03:44:20.787Z,22.20
2022-08-04T03:46:59.961Z,22.37
2022-08-04T03:49:48.358Z,22.19
2022-08-04T03:52:56.473Z,22.40
2022-08-04T03:55:38.612Z,22.30
2022-08-04T03:58:21.203Z,22.24
2022-08-04T04:01:27.795Z,22.24
2022-08-04T04:04:24.156Z,22.35
2022-08-04T04:07:34.204Z,22.30
2022-08-04T04:10:26.855Z,22.33
2022-08-04T04:13:21.804Z,22.30
2022-08-04T04:16:16.568Z,22.36
2022-08-04T04:18:52.798Z,22.40
2022-08-04T04:21:42.993Z,22.54
2022-08-04T04:24:46.625Z,22.52
2022-08-04T04:27:31.908Z,22.42
2022-08-04T04:30:07.948Z,22.51
2022-08-04T04:33:14.386Z,22.66
2022-08-04T04:36:05.983Z,22.83
2022-08-04T04:39:02.998Z,22.73
2022-08-04T04:41:48.767Z,22.72
2022-08-04T04:44:43.307Z,22.82
2022-08-04T04:47:43.170Z,22.93
2022-08-04T04:50:30.052Z,22.90
2022-08-04T04:53:05.553Z,22.88
2022-08-04T04:55:48.155Z,22.90
2022-08-04T04:58:19.898Z,22.96
2022-08-04T05:01:02.135Z,22.96
2022-08-04T05:03:50.686Z,23.12
2022-08-04T05:06:54.354Z,23.18
2022-08-04T05:09:46.589Z,24.40
2022-08-04T05:14:30.945Z,25.94
2022-08-04T05:14:57.307Z,27.04
2022-08-04T05:17:36.700Z,28.67
2022-08-04T05:20:17.739Z,28.90
2022-08-04T05:23:06.152Z,30.63
2022-08-04T05:25:59.117Z,31.82
2022-08-04T05:28:37.119Z,31.39
2022-08-04T05:31:22.947Z,30.77
2022-08-04T05:34:12.013Z,32.44
2022-08-04T05:36:45.541Z,32.32
2022-08-04T05:39:25.334Z,34.21
2022-08-04T05:42:04.596Z,34.31
2022-08-04T05:44:30.517Z,32.34
2022-08-04T05:47:02.755Z,32.52
2022-08-04T05:49:35.376Z,33.27
2022-08-04T05:52:07.580Z,36.14
2022-08-04T05:54:39.180Z,35.71
2022-08-04T05:57:11.249Z,35.38
2022-08-04T05:59:45.686Z,36.37
2022-08-04T06:02:18.414Z,34.24
2022-08-04T06:04:52.208Z,32.88
2022-08-04T06:07:23.041Z,31.57
2022-08-04T06:09:54.609Z,31.65
2022-08-04T06:12:27.893Z,30.89
2022-08-04T06:15:00.985Z,31.09
2022-08-04T06:19:57.203Z,30.75
2022-08-04T06:20:19.630Z,30.59
2022-08-04T06:22:46.250Z,30.59
2022-08-04T06:25:20.700Z,31.06
2022-08-04T06:27:52.845Z,31.39
2022-08-04T06:30:27.417Z,34.98
2022-08-04T06:33:03.947Z,36.16
2022-08-04T06:35:36.137Z,35.34
2022-08-04T06:38:07.165Z,34.35
2022-08-04T06:40:37.962Z,33.72
2022-08-04T06:43:09.392Z,36.18
2022-08-04T06:45:41.970Z,38.09
2022-08-04T06:48:15.639Z,40.09
2022-08-04T06:51:30.428Z,38.44
2022-08-04T06:53:21.555Z,34.83
2022-08-04T06:55:53.085Z,32.91
2022-08-04T06:58:25.673Z,31.77
2022-08-04T07:00:58.425Z,30.04
2022-08-04T07:03:30.322Z,28.87
2022-08-04T07:06:06.196Z,29.29
2022-08-04T07:08:35.623Z,29.44
2022-08-04T07:11:07.248Z,28.96
2022-08-04T07:13:41.972Z,28.98
2022-08-04T07:16:13.067Z,28.34
2022-08-04T07:18:43.771Z,28.62
2022-08-04T07:21:19.918Z,28.74
2022-08-04T07:23:51.283Z,28.10
2022-08-04T07:26:23.319Z,28.26
2022-08-04T07:28:53.961Z,28.46
2022-08-04T07:31:33.451Z,28.24
2022-08-04T07:34:11.502Z,28.32
2022-08-04T07:36:40.702Z,28.25
2022-08-04T07:39:07.153Z,28.41
2022-08-04T07:41:38.679Z,28.57
2022-08-04T07:44:10.930Z,28.51
2022-08-04T07:46:42.248Z,28.72
2022-08-04T07:49:13.576Z,28.79
2022-08-04T07:51:45.922Z,29.06
2022-08-04T07:54:18.343Z,28.78
2022-08-04T07:56:51.256Z,28.98
2022-08-04T07:59:22.259Z,29.05
2022-08-04T08:01:54.709Z,28.85
2022-08-04T08:04:25.499Z,29.18
2022-08-04T08:06:56.144Z,28.96
2022-08-04T08:09:26.730Z,29.35
2022-08-04T08:12:36.927Z,29.27
2022-08-04T08:14:30.690Z,29.31
2022-08-04T08:17:04.484Z,29.19
2022-08-04T08:19:36.343Z,29.37
2022-08-04T08:22:07.131Z,29.50
2022-08-04T08:24:38.334Z,29.58
2022-08-04T08:27:09.111Z,29.71
2022-08-04T08:29:40.311Z,29.62
2022-08-04T08:32:14.088Z,29.72
2022-08-04T08:34:45.669Z,29.57
2022-08-04T08:37:24.867Z,29.72
2022-08-04T08:40:04.274Z,29.98
2022-08-04T08:42:49.769Z,30.19
2022-08-04T08:45:32.086Z,30.21
2022-08-04T08:48:14.306Z,30.43
2022-08-04T08:51:06.056Z,30.29
2022-08-04T08:53:56.318Z,30.46
2022-08-04T08:56:42.143Z,30.68
2022-08-04T08:59:36.579Z,30.60
2022-08-04T09:02:26.793Z,30.85
2022-08-04T09:05:00.286Z,30.94
2022-08-04T09:07:41.968Z,31.07
2022-08-04T09:10:22.461Z,30.98
2022-08-04T09:12:58.753Z,30.98
2022-08-04T09:15:32.286Z,30.88
2022-08-04T09:18:20.839Z,30.97
2022-08-04T09:21:03.143Z,30.92
2022-08-04T09:23:36.639Z,31.19
2022-08-04T09:26:26.699Z,31.17
2022-08-04T09:29:24.621Z,31.23
2022-08-04T09:32:13.260Z,31.24
2022-08-04T09:35:08.369Z,31.49
2022-08-04T09:38:11.187Z,31.52
2022-08-04T09:41:20.791Z,31.55
2022-08-04T09:43:59.173Z,31.71
2022-08-04T09:46:38.643Z,31.69
2022-08-04T09:49:24.102Z,31.70
2022-08-04T09:52:00.474Z,31.81
2022-08-04T09:54:51.416Z,31.80
2022-08-04T09:57:40.051Z,32.03
2022-08-04T10:00:15.194Z,32.10
2022-08-04T10:02:51.508Z,31.98
2022-08-04T10:05:27.804Z,32.14
2022-08-04T10:08:18.667Z,32.30
2022-08-04T10:11:08.689Z,32.48
2022-08-04T10:14:00.095Z,32.48
2022-08-04T10:16:42.780Z,32.22
2022-08-04T10:19:27.751Z,32.54
2022-08-04T10:22:28.901Z,32.42
2022-08-04T10:24:51.423Z,32.58
2022-08-04T10:27:30.638Z,32.67
2022-08-04T10:30:08.439Z,32.87
2022-08-04T10:33:07.356Z,32.94
2022-08-04T10:35:40.889Z,33.17
2022-08-04T10:38:29.296Z,33.34
2022-08-04T10:41:05.806Z,33.38
2022-08-04T10:43:52.110Z,33.51
2022-08-04T10:46:32.082Z,33.35
2022-08-04T10:49:12.509Z,33.40
2022-08-04T10:52:01.534Z,33.44
2022-08-04T10:54:46.034Z,33.30
2022-08-04T10:57:20.439Z,33.62
2022-08-04T11:00:00.600Z,33.58
2022-08-04T11:03:06.283Z,33.63
2022-08-04T11:06:05.294Z,33.54
2022-08-04T11:08:41.435Z,33.32
2022-08-04T11:11:17.909Z,33.10
2022-08-04T11:14:03.335Z,33.35
2022-08-04T11:16:53.803Z,33.44
2022-08-04T11:19:42.812Z,33.63
2022-08-04T11:22:28.731Z,33.69
2022-08-04T11:25:25.173Z,33.77
2022-08-04T11:28:14.896Z,33.94
2022-08-04T11:30:54.395Z,33.98
2022-08-04T11:33:33.891Z,34.25
2022-08-04T11:36:09.362Z,34.12
2022-08-04T11:38:43.000Z,33.92
2022-08-04T11:41:27.152Z,34.19
2022-08-04T11:44:02.484Z,34.19
2022-08-04T11:46:38.267Z,34.38
2022-08-04T11:49:11.821Z,34.68
2022-08-04T11:51:45.495Z,34.65
2022-08-04T11:54:17.051Z,34.63
2022-08-04T11:56:47.846Z,34.43
2022-08-04T11:59:20.718Z,33.93
2022-08-04T12:02:21.719Z,33.94
2022-08-04T12:04:55.427Z,34.37
2022-08-04T12:07:45.562Z,34.78
2022-08-04T12:10:37.877Z,35.20
2022-08-04T12:13:13.160Z,35.40
2022-08-04T12:15:54.358Z,35.39
2022-08-04T12:18:30.666Z,35.29
2022-08-04T12:21:05.977Z,35.60
2022-08-04T12:23:43.823Z,35.55
2022-08-04T12:26:17.481Z,35.91
2022-08-04T12:29:09.555Z,36.03
2022-08-04T12:31:45.745Z,36.03
2022-08-04T12:34:22.183Z,36.13
2022-08-04T12:37:12.837Z,35.34
2022-08-04T12:40:21.585Z,34.92
2022-08-04T12:42:34.433Z,34.87
2022-08-04T12:45:11.069Z,34.72
2022-08-04T12:47:42.793Z,35.04
2022-08-04T12:50:18.763Z,35.02
2022-08-04T12:53:08.478Z,35.17
2022-08-04T12:55:29.019Z,35.17
2022-08-04T12:58:01.802Z,35.19
2022-08-04T13:00:41.614Z,35.47
2022-08-04T13:03:13.889Z,35.41
2022-08-04T13:05:47.126Z,35.39
2022-08-04T13:08:20.731Z,35.40
2022-08-04T13:10:54.745Z,35.28
2022-08-04T13:13:30.968Z,35.40
2022-08-04T13:16:08.545Z,35.23
2022-08-04T13:18:42.990Z,35.43
2022-08-04T13:21:20.866Z,35.30
2022-08-04T13:24:19.672Z,35.45
2022-08-04T13:26:54.100Z,35.37
2022-08-04T13:29:16.297Z,35.50
2022-08-04T13:31:42.716Z,35.50
2022-08-04T13:34:18.815Z,35.45
2022-08-04T13:36:52.793Z,35.40
2022-08-04T13:39:24.686Z,35.45
2022-08-04T13:41:59.114Z,35.69
2022-08-04T13:44:32.915Z,35.86
2022-08-04T13:47:14.144Z,36.10
2022-08-04T13:50:01.012Z,35.99
2022-08-04T13:52:15.106Z,36.11
2022-08-04T13:54:48.304Z,36.31
2022-08-04T13:57:26.194Z,36.53
2022-08-04T13:59:59.854Z,36.39
2022-08-04T14:02:46.012Z,36.03
2022-08-04T14:05:28.040Z,36.04
2022-08-04T14:08:08.539Z,35.89
2022-08-04T14:10:40.657Z,35.71
2022-08-04T14:13:11.492Z,36.08
2022-08-04T14:16:01.117Z,35.99
2022-08-04T14:18:22.979Z,36.36
2022-08-04T14:21:11.396Z,36.28
2022-08-04T14:23:57.534Z,36.00
2022-08-04T14:26:37.219Z,36.05
2022-08-04T14:29:27.053Z,35.83
2022-08-04T14:31:57.734Z,35.60
2022-08-04T14:34:33.431Z,35.85
2022-08-04T14:37:16.883Z,35.86
2022-08-04T14:40:17.888Z,35.77
2022-08-04T14:42:42.913Z,35.71
2022-08-04T14:45:13.383Z,35.65
2022-08-04T14:47:52.756Z,35.60
2022-08-04T14:50:18.536Z,35.64
2022-08-04T14:52:50.802Z,35.29
2022-08-04T14:55:23.907Z,35.40
2022-08-04T14:58:36.509Z,35.21
2022-08-04T15:00:34.276Z,35.27
2022-08-04T15:03:09.883Z,35.28
2022-08-04T15:05:55.252Z,35.12
2022-08-04T15:08:16.182Z,35.18
2022-08-04T15:10:48.257Z,35.35
2022-08-04T15:13:20.125Z,34.96
2022-08-04T15:16:06.038Z,35.08
2022-08-04T15:18:25.848Z,35.13
2022-08-04T15:21:02.136Z,35.30
2022-08-04T15:23:39.588Z,35.37
2022-08-04T15:26:07.482Z,35.46
2022-08-04T15:28:40.815Z,35.67
2022-08-04T15:32:04.825Z,35.55
2022-08-04T15:33:45.246Z,35.35
2022-08-04T15:36:28.007Z,35.35
2022-08-04T15:39:05.392Z,35.40
2022-08-04T15:42:13.976Z,35.34
2022-08-04T15:44:58.690Z,35.39
2022-08-04T15:47:28.400Z,35.37
2022-08-04T15:50:14.077Z,35.26
2022-08-04T15:53:10.602Z,35.28
2022-08-04T15:55:43.022Z,35.28
2022-08-04T15:58:15.994Z,35.55
2022-08-04T16:00:55.593Z,35.40
2022-08-04T16:03:59.189Z,35.41
2022-08-04T16:06:13.645Z,35.62
2022-08-04T16:08:57.931Z,35.40
2022-08-04T16:11:36.190Z,35.19
2022-08-04T16:14:09.080Z,35.21
2022-08-04T16:16:44.246Z,35.20
2022-08-04T16:19:35.256Z,35.14
2022-08-04T16:22:07.695Z,35.29
2022-08-04T16:24:45.394Z,35.30
2022-08-04T16:27:17.605Z,35.29
2022-08-04T16:29:48.700Z,35.19
2022-08-04T16:32:26.473Z,35.27
2022-08-04T16:35:04.482Z,35.23
2022-08-04T16:37:40.903Z,35.13
2022-08-04T16:40:38.158Z,34.98
2022-08-04T16:43:13.117Z,34.85
2022-08-04T16:45:49.251Z,34.98
2022-08-04T16:48:27.194Z,34.77
2022-08-04T16:51:10.574Z,34.86
2022-08-04T16:53:52.751Z,34.68
2022-08-04T16:56:18.981Z,34.74
2022-08-04T16:58:54.406Z,34.69
2022-08-04T17:01:33.810Z,34.67
2022-08-04T17:03:58.120Z,34.52
2022-08-04T17:06:32.758Z,34.42
2022-08-04T17:09:12.400Z,34.59
2022-08-04T17:11:45.038Z,35.11
2022-08-04T17:14:17.224Z,35.52
2022-08-04T17:16:48.944Z,35.35
2022-08-04T17:19:26.358Z,35.30
2022-08-04T17:21:59.052Z,35.15
2022-08-04T17:24:28.329Z,35.16
2022-08-04T17:26:59.524Z,35.57
2022-08-04T17:29:44.491Z,35.34
2022-08-04T17:32:07.042Z,35.22
2022-08-04T17:34:39.191Z,35.36
2022-08-04T17:37:40.834Z,35.20
2022-08-04T17:39:43.250Z,35.48
2022-08-04T17:42:15.346Z,35.45
2022-08-04T17:44:45.889Z,35.36
2022-08-04T17:47:19.343Z,35.24
2022-08-04T17:49:52.632Z,35.16
2022-08-04T17:52:44.688Z,35.00
2022-08-04T17:55:04.167Z,34.80
2022-08-04T17:57:35.437Z,34.49
2022-08-04T18:00:07.477Z,34.19
2022-08-04T18:02:39.536Z,33.99
2022-08-04T18:05:12.190Z,33.55
2022-08-04T18:08:38.462Z,33.26
2022-08-04T18:10:32.313Z,33.05
2022-08-04T18:12:48.894Z,32.88
2022-08-04T18:15:25.571Z,32.81
2022-08-04T18:18:20.457Z,32.60
2022-08-04T18:20:30.056Z,32.47
2022-08-04T18:23:00.894Z,32.39
2022-08-04T18:25:51.762Z,32.30
2022-08-04T18:28:14.405Z,32.14
2022-08-04T18:30:55.568Z,31.98
2022-08-04T18:33:37.595Z,31.83
2022-08-04T18:36:35.233Z,31.59
2022-08-04T18:38:23.879Z,31.47
2022-08-04T18:40:55.453Z,31.24
2022-08-04T18:43:30.442Z,31.20
2022-08-04T18:46:00.402Z,30.98
2022-08-04T18:48:36.302Z,30.85
2022-08-04T18:51:11.775Z,30.73
2022-08-04T18:53:37.288Z,30.61
2022-08-04T18:56:19.816Z,30.52
2022-08-04T18:58:41.009Z,30.43
2022-08-04T19:01:14.275Z,30.28
2022-08-04T19:03:48.251Z,30.21
2022-08-04T19:06:18.604Z,30.12
2022-08-04T19:08:51.439Z,30.05
2022-08-04T19:11:37.812Z,29.91
2022-08-04T19:13:58.128Z,29.88
2022-08-04T19:16:30.744Z,29.77
2022-08-04T19:19:05.645Z,29.80
2022-08-04T19:22:01.262Z,29.77
2022-08-04T19:24:33.040Z,29.60
2022-08-04T19:26:49.214Z,29.53
2022-08-04T19:29:19.920Z,29.42
2022-08-04T19:31:51.971Z,29.38
2022-08-04T19:34:33.141Z,29.33
2022-08-04T19:36:56.528Z,29.17
2022-08-04T19:39:27.016Z,29.14
2022-08-04T19:42:06.307Z,29.18
2022-08-04T19:44:31.402Z,29.13
2022-08-04T19:48:11.490Z,29.10
2022-08-04T19:50:04.774Z,29.14
2022-08-04T19:52:10.040Z,29.08
2022-08-04T19:54:41.157Z,29.04
2022-08-04T19:57:14.688Z,29.10
2022-08-04T19:59:47.997Z,29.06
2022-08-04T20:02:18.072Z,28.98
2022-08-04T20:04:51.499Z,28.91
2022-08-04T20:07:26.729Z,28.84
2022-08-04T20:10:00.211Z,28.93
2022-08-04T20:12:34.675Z,28.82
2022-08-04T20:15:07.765Z,28.79
2022-08-04T20:18:06.997Z,28.72
2022-08-04T20:20:13.564Z,28.70
2022-08-04T20:22:50.494Z,28.69
2022-08-04T20:25:35.746Z,28.65
2022-08-04T20:28:00.292Z,28.58
2022-08-04T20:30:24.391Z,28.58
2022-08-04T20:32:56.807Z,28.53
2022-08-04T20:35:28.981Z,28.50
2022-08-04T20:38:01.457Z,28.50
2022-08-04T20:40:33.719Z,28.54
2022-08-04T20:43:04.318Z,28.50
2022-08-04T20:45:57.214Z,28.44
2022-08-04T20:48:08.389Z,28.47
2022-08-04T20:50:39.968Z,28.52
2022-08-04T20:53:16.180Z,28.45
2022-08-04T20:55:55.351Z,28.55
2022-08-04T20:58:17.766Z,28.59
2022-08-04T21:00:53.263Z,28.63
2022-08-04T21:05:53.876Z,28.58
2022-08-04T21:08:27.127Z,28.62
2022-08-04T21:10:58.221Z,28.60
2022-08-04T21:13:51.887Z,29.00
2022-08-04T21:16:04.654Z,28.80
2022-08-04T21:18:35.487Z,28.82
2022-08-04T21:21:07.711Z,28.65
2022-08-04T21:23:41.608Z,28.68
2022-08-04T21:26:13.774Z,28.83
2022-08-04T21:28:46.983Z,28.82
2022-08-04T21:31:21.902Z,28.94
2022-08-04T21:33:52.383Z,28.90
2022-08-04T21:36:23.066Z,28.79
2022-08-04T21:38:56.764Z,28.70
2022-08-04T21:41:28.070Z,28.80
2022-08-04T21:44:00.447Z,28.88
2022-08-04T21:46:30.799Z,28.96
2022-08-04T21:49:12.812Z,28.92
2022-08-04T21:51:58.488Z,28.86
2022-08-04T21:54:17.131Z,28.74
2022-08-04T21:56:51.583Z,28.66
2022-08-04T21:59:24.068Z,28.48
2022-08-04T22:01:54.782Z,28.54
2022-08-04T22:04:25.692Z,28.60
2022-08-04T22:06:57.407Z,28.61
2022-08-04T22:09:28.920Z,28.57
2022-08-04T22:11:59.873Z,28.38
2022-08-04T22:14:34.635Z,28.25
2022-08-04T22:17:05.350Z,28.16
2022-08-04T22:19:54.681Z,28.11
2022-08-04T22:22:09.603Z,28.15
2022-08-04T22:24:40.044Z,28.24
2022-08-04T22:27:19.273Z,28.13
2022-08-04T22:29:49.699Z,28.12
2022-08-04T22:32:20.104Z,28.03
2022-08-04T22:34:53.482Z,27.90
2022-08-04T22:37:35.926Z,27.90
2022-08-04T22:39:58.232Z,27.89
2022-08-04T22:42:28.987Z,28.02
2022-08-04T22:45:01.287Z,28.06
2022-08-04T22:47:32.711Z,28.16
2022-08-04T22:50:27.521Z,27.92
2022-08-04T22:52:36.705Z,27.83
2022-08-04T22:55:09.933Z,27.84
2022-08-04T22:57:43.300Z,28.00
2022-08-04T23:00:13.226Z,28.02
2022-08-04T23:02:44.472Z,27.90
2022-08-04T23:05:16.641Z,27.92
2022-08-04T23:07:51.213Z,27.88
2022-08-04T23:10:24.405Z,27.86
2022-08-04T23:12:52.863Z,27.73
2022-08-04T23:15:23.364Z,27.72
2022-08-04T23:17:53.969Z,27.52
2022-08-04T23:20:32.948Z,27.36
2022-08-04T23:22:57.694Z,27.26
2022-08-04T23:25:33.225Z,27.11
2022-08-04T23:28:00.970Z,27.16
2022-08-04T23:30:33.359Z,27.07
2022-08-04T23:33:05.677Z,26.94
2022-08-04T23:35:37.750Z,26.96
2022-08-04T23:38:30.530Z,26.85
2022-08-04T23:40:50.405Z,26.75
2022-08-04T23:43:17.980Z,26.75
2022-08-04T23:46:04.229Z,26.58
2022-08-04T23:48:21.151Z,26.52
2022-08-04T23:50:51.865Z,26.37
2022-08-04T23:53:22.691Z,26.26
2022-08-04T23:55:53.448Z,26.20
2022-08-04T23:58:27.446Z,26.08
